Tropical Cyclones
[Index]
Main Index Home Page Stock Weather Photos Extreme Storms Discussion Storm News and Storm Chasing Reports Tropical Cyclones / Hurricanes / Typhoons Weather Data and Links Wild Fires / Bushfires Weather Observation Techniques Weather Picture Catalogue Tornado Pictures and Reports Stock Video Footage and DVDs for sale
Season 1993-1994 Tropical Cyclone CECILIA Track Map
Season 1993-1994 Summaries: [BoM-AU] [JTWC-AU] [JTWC-SIO] [JTWC-SPAC] [JTWC-SH]
<<- Previous TC | JTWC 1993-1994 Season | Next TC ->>

click for intensity scale information  Lat/long Grid: Show Hide

 Date Labels: Show Hide

Joint Typhoon Warning Centre Cyclone Data

Name: CECILIA

11 Dec 1993 00:00 UTC to 21 Dec 1993 12:00 UTC

    date/time    lat    long     hPa   cat  kts
1993-12-11 00    8.4    82.6                  15          
1993-12-11 06    9.2    82.5                  15          
1993-12-11 12   10.0    82.3                  15          
1993-12-11 18   10.8    81.9                  20          
1993-12-12 00   11.6    81.4                  20          
1993-12-12 06   12.4    80.9                  25          
1993-12-12 12   13.3    80.2                  25          
1993-12-12 18   14.1    79.4                  30          
1993-12-13 00   14.5    78.4                  35          
1993-12-13 06   14.9    77.5                  35          
1993-12-13 12   15.4    76.4                  35          
1993-12-13 18   15.8    75.2                  35          
1993-12-14 00   15.8    74.1                  35          
1993-12-14 06   15.7    73.2            1     40          
1993-12-14 12   15.6    72.4            1     40          
1993-12-14 18   15.4    71.4            1     45          
1993-12-15 00   15.2    70.0            2     55          
1993-12-15 06   15.3    68.8            2     55          
1993-12-15 12   15.4    67.7            2     55          
1993-12-15 18   15.4    66.7            2     60          
1993-12-16 00   15.3    65.7            2     60          
1993-12-16 06   15.4    64.7            2     60          
1993-12-16 12   15.5    63.9            2     65          
1993-12-16 18   15.7    63.1            2     65          
1993-12-17 00   15.9    62.4            2     70          
1993-12-17 06   16.2    61.7            3     75          
1993-12-17 12   16.5    61.0            3     80          
1993-12-17 18   16.8    60.5            3     80          
1993-12-18 00   17.2    60.1            3     85          
1993-12-18 06   17.6    59.7            3     80          
1993-12-18 12   17.8    59.2            2     70          
1993-12-18 18   18.0    58.6            2     60          
1993-12-19 00   18.2    58.0            1     50          
1993-12-19 06   18.4    57.3            1     45          
1993-12-19 12   18.7    56.6            1     40          
1993-12-19 18   19.2    55.8            1     40          
1993-12-20 00   19.5    55.1            1     40          
1993-12-20 06   19.8    54.6                  25          
1993-12-20 12   20.2    54.4                  25          
1993-12-20 18   20.6    54.3                  30          
1993-12-21 00   21.0    54.0                  25          
1993-12-21 06   21.6    54.0                  20          
1993-12-21 12   22.8    54.7                  20          
Winds are 1-min average.

Tropical cyclone tracks developed by Michael Bath using data from the Joint Typhoon Warning Centre Best Tracks and Google Maps.


[Australian Severe Weather index] [Copyright Notice] [Email Contacts] [Search This Site] [Privacy Policy]
Document: tropical_cyclone_cecilia.htm Updated: 18 September 2016